createdAt,value
2023-04-26T00:01:23.013Z,4.80
2023-04-26T00:04:05.129Z,5.30
2023-04-26T00:06:32.504Z,4.90
2023-04-26T00:08:59.647Z,5.27
2023-04-26T00:14:59.200Z,5.60
2023-04-26T00:20:35.375Z,5.13
2023-04-26T00:23:10.695Z,5.07
2023-04-26T00:28:39.559Z,3.70
2023-04-26T00:31:14.119Z,4.30
2023-04-26T00:33:54.622Z,4.23
2023-04-26T00:36:33.711Z,4.30
2023-04-26T00:39:24.549Z,4.63
2023-04-26T00:41:58.308Z,4.67
2023-04-26T00:44:46.062Z,4.47
2023-04-26T00:47:22.397Z,4.60
2023-04-26T00:50:09.920Z,4.80
2023-04-26T00:52:49.247Z,5.20
2023-04-26T00:55:30.007Z,4.73
2023-04-26T01:01:10.220Z,5.07
2023-04-26T01:03:40.856Z,4.30
2023-04-26T01:06:22.274Z,4.63
2023-04-26T01:08:59.611Z,4.57
2023-04-26T01:11:26.964Z,4.43
2023-04-26T01:14:12.672Z,4.33
2023-04-26T01:16:42.671Z,4.30
2023-04-26T01:19:17.095Z,4.73
2023-04-26T01:21:47.069Z,4.97
2023-04-26T01:24:32.777Z,5.53
2023-04-26T01:26:59.903Z,5.27
2023-04-26T01:29:27.423Z,5.00
2023-04-26T01:31:54.354Z,5.30
2023-04-26T01:34:21.774Z,4.40
2023-04-26T01:36:48.641Z,4.73
2023-04-26T01:39:16.010Z,4.00
2023-04-26T01:41:42.996Z,4.60
2023-04-26T01:44:09.955Z,5.20
2023-04-26T01:46:37.119Z,5.30
2023-04-26T01:49:04.169Z,4.90
2023-04-26T01:51:31.356Z,5.07
2023-04-26T01:53:58.283Z,5.17
2023-04-26T01:56:25.384Z,5.03
2023-04-26T01:58:52.558Z,5.17
2023-04-26T02:01:19.782Z,5.93
2023-04-26T02:03:46.750Z,5.43
2023-04-26T02:06:13.814Z,6.23
2023-04-26T02:08:40.835Z,5.77
2023-04-26T02:11:07.980Z,6.53
2023-04-26T02:13:34.961Z,6.07
2023-04-26T02:16:01.961Z,5.23
2023-04-26T02:18:29.871Z,5.87
2023-04-26T02:20:56.777Z,6.20
2023-04-26T02:23:24.307Z,5.87
2023-04-26T02:25:51.442Z,5.53
2023-04-26T02:28:18.496Z,6.73
2023-04-26T02:30:45.419Z,6.70
2023-04-26T02:33:12.478Z,6.07
2023-04-26T02:35:39.383Z,6.43
2023-04-26T02:38:07.337Z,7.13
2023-04-26T02:40:34.513Z,6.47
2023-04-26T02:43:01.645Z,7.27
2023-04-26T02:45:28.583Z,6.77
2023-04-26T02:47:55.727Z,6.30
2023-04-26T02:50:22.955Z,8.07
2023-04-26T02:52:49.865Z,7.87
2023-04-26T02:55:17.482Z,6.87
2023-04-26T02:57:44.413Z,7.90
2023-04-26T03:00:14.228Z,7.13
2023-04-26T03:02:41.916Z,6.17
2023-04-26T03:05:10.614Z,6.13
2023-04-26T03:07:37.914Z,6.20
2023-04-26T03:10:05.666Z,7.23
2023-04-26T03:12:32.679Z,7.20
2023-04-26T03:14:59.568Z,6.67
2023-04-26T03:17:26.664Z,7.30
2023-04-26T03:19:53.629Z,7.53
2023-04-26T03:22:21.180Z,6.87
2023-04-26T03:24:49.181Z,6.63
2023-04-26T03:27:16.588Z,7.73
2023-04-26T03:29:44.238Z,6.53
2023-04-26T03:32:11.543Z,6.97
2023-04-26T03:34:38.574Z,8.20
2023-04-26T03:37:05.643Z,7.73
2023-04-26T03:39:32.665Z,7.60
2023-04-26T03:41:59.600Z,8.33
2023-04-26T03:44:27.355Z,8.07
2023-04-26T03:46:56.265Z,8.10
2023-04-26T03:49:23.174Z,8.70
2023-04-26T03:51:50.071Z,8.83
2023-04-26T03:54:17.047Z,7.53
2023-04-26T03:56:43.971Z,8.33
2023-04-26T03:59:10.919Z,8.13
2023-04-26T04:01:38.011Z,8.67
2023-04-26T04:04:05.322Z,7.57
2023-04-26T04:06:32.990Z,8.07
2023-04-26T04:09:00.026Z,8.00
2023-04-26T04:11:26.972Z,9.90
2023-04-26T04:13:53.966Z,8.50
2023-04-26T04:16:21.029Z,7.90
2023-04-26T04:18:48.076Z,7.53
2023-04-26T04:21:15.034Z,7.70
2023-04-26T04:23:44.313Z,8.23
2023-04-26T04:26:12.655Z,7.30
2023-04-26T04:28:41.612Z,8.30
2023-04-26T04:31:09.974Z,7.47
2023-04-26T04:33:37.639Z,7.90
2023-04-26T04:36:04.910Z,7.60
2023-04-26T04:38:31.908Z,7.77
2023-04-26T04:40:58.921Z,8.50
2023-04-26T04:43:25.893Z,8.20
2023-04-26T04:45:52.870Z,7.50
2023-04-26T04:48:21.342Z,7.30
2023-04-26T04:50:49.565Z,8.03
2023-04-26T04:53:17.648Z,8.80
2023-04-26T04:55:44.624Z,8.57
2023-04-26T04:58:12.348Z,8.27
2023-04-26T05:00:39.720Z,8.53
2023-04-26T05:03:09.921Z,8.00
2023-04-26T05:05:37.088Z,8.23
2023-04-26T05:08:04.275Z,8.23
2023-04-26T05:10:31.650Z,8.30
2023-04-26T05:12:58.691Z,7.93
2023-04-26T05:15:25.647Z,7.93
2023-04-26T05:17:52.596Z,8.57
2023-04-26T05:20:19.890Z,8.47
2023-04-26T05:22:47.339Z,8.43
2023-04-26T05:25:14.691Z,9.10
2023-04-26T05:27:41.589Z,8.37
2023-04-26T05:30:09.312Z,8.80
2023-04-26T05:32:36.531Z,8.00
2023-04-26T05:35:03.744Z,8.67
2023-04-26T05:37:30.658Z,8.90
2023-04-26T05:39:57.738Z,8.23
2023-04-26T05:42:24.669Z,8.87
2023-04-26T05:44:51.626Z,9.67
2023-04-26T05:47:18.543Z,10.10
2023-04-26T05:49:45.449Z,10.43
2023-04-26T05:52:12.347Z,9.30
2023-04-26T05:54:39.250Z,9.07
2023-04-26T05:57:06.321Z,9.67
2023-04-26T05:59:37.143Z,9.10
2023-04-26T06:02:05.013Z,8.90
2023-04-26T06:04:32.807Z,9.33
2023-04-26T06:07:00.537Z,9.77
2023-04-26T06:09:27.579Z,9.87
2023-04-26T06:11:54.563Z,9.87
2023-04-26T06:14:30.108Z,9.27
2023-04-26T06:16:58.451Z,9.90
2023-04-26T06:19:25.486Z,9.30
2023-04-26T06:21:54.952Z,10.43
2023-04-26T06:24:22.888Z,11.10
2023-04-26T06:26:49.819Z,11.13
2023-04-26T06:29:17.256Z,10.50
2023-04-26T06:31:44.297Z,10.93
2023-04-26T06:34:11.227Z,10.67
2023-04-26T06:36:38.154Z,10.93
2023-04-26T06:39:05.071Z,11.07
2023-04-26T06:41:32.094Z,10.73
2023-04-26T06:43:59.003Z,10.37
2023-04-26T06:46:25.994Z,11.50
2023-04-26T06:48:56.285Z,11.47
2023-04-26T06:51:23.277Z,11.60
2023-04-26T06:53:50.481Z,11.30
2023-04-26T06:56:17.578Z,11.27
2023-04-26T06:59:01.855Z,15.37
2023-04-26T07:01:33.625Z,12.53
2023-04-26T07:04:03.592Z,12.40
2023-04-26T07:06:31.539Z,12.20
2023-04-26T07:09:02.845Z,11.43
2023-04-26T07:11:30.406Z,11.27
2023-04-26T07:13:57.805Z,10.37
2023-04-26T07:16:25.088Z,11.37
2023-04-26T07:18:52.980Z,10.73
2023-04-26T07:21:20.073Z,10.43
2023-04-26T07:23:47.012Z,9.97
2023-04-26T07:26:13.984Z,10.47
2023-04-26T07:28:40.927Z,9.10
2023-04-26T07:31:09.639Z,9.03
2023-04-26T07:33:38.099Z,8.70
2023-04-26T07:36:05.611Z,8.73
2023-04-26T07:38:32.620Z,8.60
2023-04-26T07:41:01.216Z,9.40
2023-04-26T07:43:28.500Z,9.47
2023-04-26T07:45:55.597Z,9.17
2023-04-26T07:48:22.573Z,9.77
2023-04-26T07:50:49.481Z,8.70
2023-04-26T07:53:16.461Z,7.40
2023-04-26T07:55:43.422Z,7.87
2023-04-26T07:58:14.533Z,7.93
2023-04-26T08:00:42.052Z,7.07
2023-04-26T08:03:09.366Z,6.33
2023-04-26T08:05:36.725Z,6.07
2023-04-26T08:08:04.422Z,5.70
2023-04-26T08:10:31.390Z,5.77
2023-04-26T08:12:58.314Z,5.50
2023-04-26T08:15:25.359Z,5.33
2023-04-26T08:17:53.463Z,5.30
2023-04-26T08:20:20.890Z,4.73
2023-04-26T08:22:47.922Z,4.50
2023-04-26T08:25:15.967Z,4.13
2023-04-26T08:27:44.866Z,4.53
2023-04-26T08:30:12.351Z,4.93
2023-04-26T08:32:39.336Z,5.20
2023-04-26T08:35:06.894Z,5.30
2023-04-26T08:37:33.835Z,6.43
2023-04-26T08:40:00.865Z,6.43
2023-04-26T08:42:28.804Z,7.97
2023-04-26T08:44:56.605Z,6.00
2023-04-26T08:47:34.459Z,5.50
2023-04-26T08:50:03.904Z,5.50
2023-04-26T08:52:32.827Z,5.93
2023-04-26T08:55:01.075Z,3.73
2023-04-26T08:57:30.507Z,3.80
2023-04-26T08:59:58.491Z,4.07
2023-04-26T09:02:25.790Z,3.70
2023-04-26T09:04:53.241Z,3.63
2023-04-26T09:07:32.904Z,3.20
2023-04-26T09:10:00.932Z,3.03
2023-04-26T09:12:28.118Z,5.23
2023-04-26T09:14:56.434Z,4.40
2023-04-26T09:17:32.270Z,3.45
2023-04-26T09:20:01.263Z,3.23
2023-04-26T09:22:33.237Z,3.40
2023-04-26T09:25:01.466Z,3.00
2023-04-26T09:27:43.365Z,4.57
2023-04-26T09:30:18.819Z,4.97
2023-04-26T09:32:46.068Z,4.47
2023-04-26T09:35:25.385Z,4.47
2023-04-26T09:38:08.629Z,4.97
2023-04-26T09:40:43.365Z,4.80
2023-04-26T09:43:16.615Z,4.43
2023-04-26T09:45:52.046Z,4.80
2023-04-26T09:48:19.032Z,4.03
2023-04-26T09:50:46.639Z,4.25
2023-04-26T09:53:28.680Z,4.43
2023-04-26T09:55:57.002Z,3.42
2023-04-26T09:58:24.335Z,3.80
2023-04-26T10:00:52.341Z,3.28
2023-04-26T10:03:23.526Z,3.67
2023-04-26T10:05:51.358Z,3.78
2023-04-26T10:08:18.753Z,3.53
2023-04-26T10:10:46.060Z,3.30
2023-04-26T10:13:14.193Z,3.40
2023-04-26T10:15:42.159Z,3.58
2023-04-26T10:18:09.165Z,3.53
2023-04-26T10:20:46.962Z,3.60
2023-04-26T10:23:25.583Z,3.15
2023-04-26T10:25:53.868Z,3.55
2023-04-26T10:28:46.042Z,3.83
2023-04-26T10:31:12.969Z,3.60
2023-04-26T10:33:39.958Z,3.65
2023-04-26T10:36:08.401Z,3.38
2023-04-26T10:38:41.835Z,3.65
2023-04-26T10:41:32.089Z,3.28
2023-04-26T10:44:22.165Z,2.75
2023-04-26T10:46:52.840Z,3.15
2023-04-26T10:49:24.974Z,3.42
2023-04-26T10:52:14.749Z,5.13
2023-04-26T10:54:50.592Z,4.25
2023-04-26T10:57:18.006Z,3.67
2023-04-26T11:00:17.270Z,3.53
2023-04-26T11:02:57.517Z,4.10
2023-04-26T11:05:54.634Z,4.07
2023-04-26T11:08:30.322Z,4.50
2023-04-26T11:11:04.836Z,4.20
2023-04-26T11:13:40.142Z,4.43
2023-04-26T11:16:15.472Z,4.70
2023-04-26T11:18:46.205Z,4.53
2023-04-26T11:21:17.582Z,4.30
2023-04-26T11:23:54.407Z,4.00
2023-04-26T11:26:22.031Z,4.10
2023-04-26T11:28:49.803Z,4.07
2023-04-26T11:31:19.515Z,4.40
2023-04-26T11:33:49.228Z,3.70
2023-04-26T11:36:19.644Z,3.92
2023-04-26T11:38:46.725Z,3.88
2023-04-26T11:41:13.677Z,3.92
2023-04-26T11:43:40.749Z,4.30
2023-04-26T11:46:10.013Z,4.32
2023-04-26T11:48:38.808Z,4.45
2023-04-26T11:51:07.862Z,4.50
2023-04-26T11:53:43.083Z,4.20
2023-04-26T11:56:20.675Z,4.82
2023-04-26T11:58:53.857Z,4.60
2023-04-26T12:01:26.578Z,4.35
2023-04-26T12:03:56.275Z,4.07
2023-04-26T12:06:50.823Z,4.40
2023-04-26T12:09:23.280Z,4.53
2023-04-26T12:11:59.866Z,4.22
2023-04-26T12:14:38.766Z,4.47
2023-04-26T12:17:07.527Z,4.18
2023-04-26T12:19:38.962Z,4.20
2023-04-26T12:22:07.349Z,4.20
2023-04-26T12:24:36.858Z,4.30
2023-04-26T12:27:08.882Z,4.72
2023-04-26T12:29:36.080Z,4.65
2023-04-26T12:32:04.293Z,4.80
2023-04-26T12:34:31.450Z,4.75
2023-04-26T12:36:58.482Z,4.57
2023-04-26T12:39:25.656Z,4.50
2023-04-26T12:41:52.695Z,3.92
2023-04-26T12:44:21.944Z,4.25
2023-04-26T12:46:49.820Z,4.55
2023-04-26T12:49:16.867Z,4.43
2023-04-26T12:51:43.829Z,4.60
2023-04-26T12:54:10.752Z,4.20
2023-04-26T12:56:43.495Z,4.40
2023-04-26T12:59:10.411Z,4.50
2023-04-26T13:01:37.377Z,4.50
2023-04-26T13:04:05.957Z,4.35
2023-04-26T13:06:33.682Z,4.93
2023-04-26T13:09:01.588Z,4.30
2023-04-26T13:11:28.546Z,4.22
2023-04-26T13:13:55.533Z,4.00
2023-04-26T13:16:22.571Z,4.22
2023-04-26T13:18:49.522Z,4.70
2023-04-26T13:21:16.646Z,4.75
2023-04-26T13:23:43.624Z,4.43
2023-04-26T13:26:10.546Z,3.85
2023-04-26T13:28:37.475Z,3.95
2023-04-26T13:31:04.584Z,4.93
2023-04-26T13:33:31.622Z,4.20
2023-04-26T13:35:58.577Z,4.93
2023-04-26T13:38:26.876Z,5.00
2023-04-26T13:40:54.072Z,5.13
2023-04-26T13:43:20.978Z,4.50
2023-04-26T13:45:47.973Z,5.68
2023-04-26T13:48:15.194Z,5.03
2023-04-26T13:50:42.293Z,5.78
2023-04-26T13:53:09.220Z,4.20
2023-04-26T13:55:36.120Z,4.63
2023-04-26T13:58:03.216Z,5.40
2023-04-26T14:00:30.125Z,5.00
2023-04-26T14:02:57.357Z,4.95
2023-04-26T14:05:24.591Z,5.22
2023-04-26T14:07:53.637Z,4.93
2023-04-26T14:10:22.278Z,4.43
2023-04-26T14:12:49.330Z,5.10
2023-04-26T14:15:16.308Z,4.60
2023-04-26T14:17:43.376Z,4.90
2023-04-26T14:20:10.973Z,5.85
2023-04-26T14:22:37.945Z,4.88
2023-04-26T14:25:05.548Z,5.00
2023-04-26T14:27:32.666Z,4.95
2023-04-26T14:29:59.624Z,5.22
2023-04-26T14:32:26.959Z,5.32
2023-04-26T14:34:53.928Z,4.60
2023-04-26T14:37:22.651Z,4.60
2023-04-26T14:39:50.945Z,5.22
2023-04-26T14:42:17.871Z,5.80
2023-04-26T14:44:46.528Z,6.13
2023-04-26T14:47:13.580Z,5.93
2023-04-26T14:49:41.188Z,5.90
2023-04-26T14:52:08.139Z,6.28
2023-04-26T14:54:39.542Z,6.70
2023-04-26T14:57:06.976Z,6.15
2023-04-26T14:59:34.234Z,6.78
2023-04-26T15:02:01.262Z,6.82
2023-04-26T15:04:28.624Z,6.97
2023-04-26T15:06:56.743Z,6.75
2023-04-26T15:09:23.972Z,7.07
2023-04-26T15:11:50.943Z,7.10
2023-04-26T15:14:17.872Z,7.00
2023-04-26T15:16:45.367Z,7.30
2023-04-26T15:19:12.486Z,7.47
2023-04-26T15:21:39.506Z,6.85
2023-04-26T15:24:07.766Z,7.63
2023-04-26T15:26:34.890Z,7.03
2023-04-26T15:29:02.033Z,7.35
2023-04-26T15:31:29.066Z,7.65
2023-04-26T15:33:58.677Z,7.78
2023-04-26T15:36:25.972Z,6.53
2023-04-26T15:38:52.927Z,7.20
2023-04-26T15:41:19.985Z,6.88
2023-04-26T15:43:46.963Z,7.13
2023-04-26T15:46:15.044Z,6.80
2023-04-26T15:48:42.092Z,6.82
2023-04-26T15:51:09.051Z,7.20
2023-04-26T15:53:39.225Z,6.95
2023-04-26T15:56:17.793Z,6.35
2023-04-26T15:58:46.090Z,6.03
2023-04-26T16:01:14.001Z,6.13
2023-04-26T16:03:42.234Z,6.25
2023-04-26T16:06:11.836Z,6.70
2023-04-26T16:08:40.651Z,6.72
2023-04-26T16:11:08.033Z,7.72
2023-04-26T16:13:35.035Z,7.85
2023-04-26T16:16:02.086Z,7.63
2023-04-26T16:18:29.003Z,7.82
2023-04-26T16:21:07.410Z,8.63
2023-04-26T16:23:34.408Z,9.23
2023-04-26T16:26:01.534Z,10.00
2023-04-26T16:28:28.557Z,9.68
2023-04-26T16:30:55.955Z,9.20
2023-04-26T16:33:23.714Z,9.25
2023-04-26T16:35:58.005Z,9.60
2023-04-26T16:38:24.975Z,9.55
2023-04-26T16:41:01.707Z,9.50
2023-04-26T16:43:30.470Z,9.35
2023-04-26T16:46:06.123Z,8.65
2023-04-26T16:48:38.191Z,8.93
2023-04-26T16:51:07.641Z,8.68
2023-04-26T16:53:36.240Z,8.60
2023-04-26T16:56:03.926Z,8.00
2023-04-26T16:58:30.860Z,8.38
2023-04-26T17:00:58.269Z,8.50
2023-04-26T17:03:25.885Z,8.90
2023-04-26T17:05:53.196Z,8.35
2023-04-26T17:08:20.602Z,9.27
2023-04-26T17:10:48.290Z,10.55
2023-04-26T17:13:15.572Z,9.60
2023-04-26T17:15:42.837Z,10.65
2023-04-26T17:18:10.367Z,9.70
2023-04-26T17:20:37.420Z,9.98
2023-04-26T17:23:04.777Z,8.43
2023-04-26T17:25:32.286Z,8.73
2023-04-26T17:27:59.336Z,8.30
2023-04-26T17:30:26.415Z,8.73
2023-04-26T17:32:53.454Z,8.43
2023-04-26T17:35:20.577Z,7.70
2023-04-26T17:37:50.026Z,8.70
2023-04-26T17:40:18.668Z,8.07
2023-04-26T17:42:46.569Z,9.00
2023-04-26T17:45:14.594Z,9.63
2023-04-26T17:47:43.154Z,9.30
2023-04-26T17:50:10.804Z,8.10
2023-04-26T17:52:38.374Z,7.60
2023-04-26T17:55:08.299Z,7.70
2023-04-26T17:57:36.194Z,7.73
2023-04-26T18:00:04.236Z,7.97
2023-04-26T18:02:31.482Z,8.07
2023-04-26T18:04:58.685Z,8.00
2023-04-26T18:07:26.212Z,7.87
2023-04-26T18:09:53.141Z,7.40
2023-04-26T18:12:20.066Z,7.47
2023-04-26T18:14:47.066Z,7.07
2023-04-26T18:17:15.182Z,7.70
2023-04-26T18:19:42.754Z,7.90
2023-04-26T18:22:09.947Z,6.87
2023-04-26T18:24:37.278Z,6.80
2023-04-26T18:27:04.321Z,7.43
2023-04-26T18:29:31.293Z,7.00
2023-04-26T18:31:58.392Z,8.37
2023-04-26T18:34:25.442Z,7.50
2023-04-26T18:36:52.417Z,7.20
2023-04-26T18:39:19.316Z,7.33
2023-04-26T18:41:46.297Z,7.07
2023-04-26T18:44:13.404Z,7.60
2023-04-26T18:46:43.447Z,6.83
2023-04-26T18:49:11.133Z,7.33
2023-04-26T18:51:38.082Z,7.73
2023-04-26T18:54:05.556Z,7.43
2023-04-26T18:56:32.694Z,7.00
2023-04-26T18:58:59.635Z,7.60
2023-04-26T19:01:26.549Z,8.50
2023-04-26T19:03:54.098Z,7.53
2023-04-26T19:06:21.703Z,7.63
2023-04-26T19:08:48.734Z,7.73
2023-04-26T19:11:15.776Z,7.33
2023-04-26T19:13:42.899Z,8.13
2023-04-26T19:16:10.707Z,8.17
2023-04-26T19:18:40.375Z,8.03
2023-04-26T19:21:08.498Z,7.87
2023-04-26T19:23:36.703Z,9.30
2023-04-26T19:26:12.496Z,8.27
2023-04-26T19:28:39.690Z,7.73
2023-04-26T19:31:06.775Z,7.60
2023-04-26T19:33:33.837Z,7.43
2023-04-26T19:36:01.024Z,8.70
2023-04-26T19:38:28.701Z,7.80
2023-04-26T19:40:55.690Z,7.90
2023-04-26T19:43:22.665Z,7.90
2023-04-26T19:45:49.576Z,8.10
2023-04-26T19:48:16.507Z,7.63
2023-04-26T19:50:45.653Z,7.80
2023-04-26T19:53:14.752Z,7.53
2023-04-26T19:55:42.659Z,7.27
2023-04-26T19:58:13.305Z,7.70
2023-04-26T20:00:40.587Z,6.53
2023-04-26T20:03:07.970Z,7.13
2023-04-26T20:05:35.062Z,7.30
2023-04-26T20:08:02.618Z,6.97
2023-04-26T20:10:34.044Z,7.00
2023-04-26T20:13:01.456Z,7.07
2023-04-26T20:15:29.374Z,6.57
2023-04-26T20:17:57.572Z,6.53
2023-04-26T20:20:25.494Z,6.43
2023-04-26T20:22:52.432Z,6.60
2023-04-26T20:25:20.030Z,6.60
2023-04-26T20:27:47.802Z,6.70
2023-04-26T20:30:15.770Z,7.13
2023-04-26T20:32:43.571Z,7.60
2023-04-26T20:35:12.863Z,6.87
2023-04-26T20:37:40.058Z,7.13
2023-04-26T20:40:07.991Z,7.43
2023-04-26T20:42:35.431Z,6.70
2023-04-26T20:45:03.797Z,7.17
2023-04-26T20:47:31.262Z,6.77
2023-04-26T20:49:58.227Z,7.53
2023-04-26T20:52:25.601Z,7.90
2023-04-26T20:54:52.555Z,7.87
2023-04-26T20:57:19.482Z,8.47
2023-04-26T20:59:46.584Z,7.93
2023-04-26T21:02:13.778Z,7.40
2023-04-26T21:04:42.902Z,7.30
2023-04-26T21:07:10.667Z,7.17
2023-04-26T21:09:37.976Z,8.10
2023-04-26T21:12:05.567Z,7.77
2023-04-26T21:14:32.592Z,7.90
2023-04-26T21:17:01.146Z,7.70
2023-04-26T21:19:28.242Z,7.50
2023-04-26T21:21:55.151Z,7.83
2023-04-26T21:24:22.422Z,7.20
2023-04-26T21:26:49.369Z,7.40
2023-04-26T21:29:16.501Z,8.20
2023-04-26T21:31:43.695Z,8.60
2023-04-26T21:34:10.789Z,8.10
2023-04-26T21:36:37.808Z,7.80
2023-04-26T21:39:04.732Z,7.87
2023-04-26T21:41:31.770Z,8.37
2023-04-26T21:43:58.734Z,8.53
2023-04-26T21:46:26.282Z,8.37
2023-04-26T21:48:53.302Z,8.73
2023-04-26T21:51:20.238Z,8.27
2023-04-26T21:53:47.177Z,7.87
2023-04-26T21:56:14.942Z,8.40
2023-04-26T21:58:42.420Z,8.33
2023-04-26T22:01:12.926Z,8.50
2023-04-26T22:03:40.559Z,8.40
2023-04-26T22:06:09.284Z,7.73
2023-04-26T22:08:36.368Z,7.83
2023-04-26T22:11:03.406Z,8.40
2023-04-26T22:13:31.316Z,8.37
2023-04-26T22:15:58.422Z,9.13
2023-04-26T22:18:29.366Z,8.67
2023-04-26T22:20:56.677Z,9.07
2023-04-26T22:23:23.738Z,8.33
2023-04-26T22:25:50.800Z,8.73
2023-04-26T22:28:17.861Z,8.70
2023-04-26T22:30:44.861Z,8.77
2023-04-26T22:33:12.387Z,9.00
2023-04-26T22:35:39.684Z,8.90
2023-04-26T22:38:06.821Z,8.53
2023-04-26T22:40:33.842Z,8.03
2023-04-26T22:43:00.814Z,8.27
2023-04-26T22:45:27.865Z,8.50
2023-04-26T22:47:54.827Z,8.87
2023-04-26T22:50:22.098Z,9.03
2023-04-26T22:52:49.842Z,8.20
2023-04-26T22:55:17.515Z,9.10
2023-04-26T22:57:44.479Z,9.47
2023-04-26T23:00:12.735Z,9.60
2023-04-26T23:02:41.142Z,10.17
2023-04-26T23:05:11.945Z,9.97
2023-04-26T23:07:40.027Z,9.57
2023-04-26T23:10:07.825Z,8.60
2023-04-26T23:12:36.150Z,8.87
2023-04-26T23:15:05.356Z,10.17
2023-04-26T23:17:34.080Z,9.60
2023-04-26T23:20:01.228Z,10.00
2023-04-26T23:22:28.267Z,9.70
2023-04-26T23:24:55.523Z,9.43
2023-04-26T23:27:24.402Z,10.40
2023-04-26T23:29:51.762Z,10.03
2023-04-26T23:32:18.700Z,9.60
2023-04-26T23:34:45.631Z,9.80
2023-04-26T23:37:12.597Z,10.10
2023-04-26T23:39:39.549Z,10.20
2023-04-26T23:42:06.685Z,9.80
2023-04-26T23:44:33.718Z,9.43
2023-04-26T23:47:00.827Z,10.30
2023-04-26T23:49:28.141Z,9.90
2023-04-26T23:51:55.212Z,9.73
2023-04-26T23:54:22.154Z,9.83
2023-04-26T23:56:49.126Z,9.37
2023-04-26T23:59:16.853Z,9.77
